sensor_id;sensor_type;location;lat;lon;timestamp;P1;durP1;ratioP1;P2;durP2;ratioP2
58101;SDS011;52034;51.926;6.320;2023-05-23T00:00:44;10.57;;;7.90;;
58101;SDS011;52034;51.926;6.320;2023-05-23T00:01:45;8.20;;;7.40;;
58101;SDS011;52034;51.926;6.320;2023-05-23T00:02:45;9.50;;;7.70;;
58101;SDS011;52034;51.926;6.320;2023-05-23T00:03:46;10.10;;;8.40;;
58101;SDS011;52034;51.926;6.320;2023-05-23T00:04:48;9.98;;;7.55;;
58101;SDS011;52034;51.926;6.320;2023-05-23T00:05:48;12.33;;;8.23;;
58101;SDS011;52034;51.926;6.320;2023-05-23T00:06:50;9.15;;;7.55;;
58101;SDS011;52034;51.926;6.320;2023-05-23T00:07:50;10.00;;;7.70;;
58101;SDS011;52034;51.926;6.320;2023-05-23T00:08:50;8.70;;;7.80;;
58101;SDS011;52034;51.926;6.320;2023-05-23T00:09:51;8.70;;;7.80;;
58101;SDS011;52034;51.926;6.320;2023-05-23T00:10:51;9.73;;;8.47;;
58101;SDS011;52034;51.926;6.320;2023-05-23T00:11:51;8.50;;;7.67;;
58101;SDS011;52034;51.926;6.320;2023-05-23T00:12:51;10.07;;;7.47;;
58101;SDS011;52034;51.926;6.320;2023-05-23T00:13:52;11.50;;;8.30;;
58101;SDS011;52034;51.926;6.320;2023-05-23T00:14:52;8.93;;;7.73;;
58101;SDS011;52034;51.926;6.320;2023-05-23T00:15:53;10.53;;;8.30;;
58101;SDS011;52034;51.926;6.320;2023-05-23T00:16:53;10.33;;;8.43;;
58101;SDS011;52034;51.926;6.320;2023-05-23T00:17:54;9.67;;;8.23;;
58101;SDS011;52034;51.926;6.320;2023-05-23T00:18:54;13.40;;;8.63;;
58101;SDS011;52034;51.926;6.320;2023-05-23T00:19:56;12.48;;;8.50;;
58101;SDS011;52034;51.926;6.320;2023-05-23T00:20:56;10.10;;;8.57;;
58101;SDS011;52034;51.926;6.320;2023-05-23T00:21:58;10.77;;;9.02;;
58101;SDS011;52034;51.926;6.320;2023-05-23T00:22:58;11.07;;;8.67;;
58101;SDS011;52034;51.926;6.320;2023-05-23T00:23:58;11.83;;;8.87;;
58101;SDS011;52034;51.926;6.320;2023-05-23T00:24:59;10.47;;;9.03;;
58101;SDS011;52034;51.926;6.320;2023-05-23T00:26:01;12.30;;;8.55;;
58101;SDS011;52034;51.926;6.320;2023-05-23T00:27:01;10.93;;;8.90;;
58101;SDS011;52034;51.926;6.320;2023-05-23T00:28:02;12.07;;;9.67;;
58101;SDS011;52034;51.926;6.320;2023-05-23T00:29:03;13.45;;;9.25;;
58101;SDS011;52034;51.926;6.320;2023-05-23T00:30:03;12.90;;;9.30;;
58101;SDS011;52034;51.926;6.320;2023-05-23T00:31:04;13.13;;;9.30;;
58101;SDS011;52034;51.926;6.320;2023-05-23T00:32:04;13.67;;;8.90;;
58101;SDS011;52034;51.926;6.320;2023-05-23T00:33:05;13.27;;;9.80;;
58101;SDS011;52034;51.926;6.320;2023-05-23T00:34:05;12.27;;;9.33;;
58101;SDS011;52034;51.926;6.320;2023-05-23T00:35:06;12.83;;;9.47;;
58101;SDS011;52034;51.926;6.320;2023-05-23T00:36:07;12.35;;;9.23;;
58101;SDS011;52034;51.926;6.320;2023-05-23T00:37:08;14.80;;;9.10;;
58101;SDS011;52034;51.926;6.320;2023-05-23T00:38:08;16.00;;;9.10;;
58101;SDS011;52034;51.926;6.320;2023-05-23T00:40:18;12.23;;;9.00;;
58101;SDS011;52034;51.926;6.320;2023-05-23T00:41:18;12.17;;;8.60;;
58101;SDS011;52034;51.926;6.320;2023-05-23T00:43:20;13.35;;;9.05;;
58101;SDS011;52034;51.926;6.320;2023-05-23T00:44:21;12.25;;;8.20;;
58101;SDS011;52034;51.926;6.320;2023-05-23T00:45:22;13.67;;;8.80;;
58101;SDS011;52034;51.926;6.320;2023-05-23T00:46:22;13.63;;;8.53;;
58101;SDS011;52034;51.926;6.320;2023-05-23T00:47:22;11.60;;;8.80;;
58101;SDS011;52034;51.926;6.320;2023-05-23T00:48:25;11.67;;;8.53;;
58101;SDS011;52034;51.926;6.320;2023-05-23T00:49:26;12.70;;;8.93;;
58101;SDS011;52034;51.926;6.320;2023-05-23T00:50:27;12.15;;;8.23;;
58101;SDS011;52034;51.926;6.320;2023-05-23T00:51:28;12.27;;;7.88;;
58101;SDS011;52034;51.926;6.320;2023-05-23T00:52:30;12.10;;;8.25;;
58101;SDS011;52034;51.926;6.320;2023-05-23T00:53:30;11.20;;;8.17;;
58101;SDS011;52034;51.926;6.320;2023-05-23T00:54:31;10.03;;;7.87;;
58101;SDS011;52034;51.926;6.320;2023-05-23T00:55:32;10.80;;;8.18;;
58101;SDS011;52034;51.926;6.320;2023-05-23T00:56:33;12.60;;;7.97;;
58101;SDS011;52034;51.926;6.320;2023-05-23T00:57:33;12.97;;;8.27;;
58101;SDS011;52034;51.926;6.320;2023-05-23T00:58:38;13.30;;;8.10;;
58101;SDS011;52034;51.926;6.320;2023-05-23T00:59:40;11.48;;;7.93;;
58101;SDS011;52034;51.926;6.320;2023-05-23T01:00:41;11.90;;;8.05;;
58101;SDS011;52034;51.926;6.320;2023-05-23T01:01:43;15.63;;;8.40;;
58101;SDS011;52034;51.926;6.320;2023-05-23T01:03:46;10.95;;;7.57;;
58101;SDS011;52034;51.926;6.320;2023-05-23T01:04:50;10.57;;;7.50;;
58101;SDS011;52034;51.926;6.320;2023-05-23T01:05:54;10.68;;;7.80;;
58101;SDS011;52034;51.926;6.320;2023-05-23T01:06:55;12.48;;;8.05;;
58101;SDS011;52034;51.926;6.320;2023-05-23T01:07:55;15.13;;;8.47;;
58101;SDS011;52034;51.926;6.320;2023-05-23T01:08:56;12.33;;;8.07;;
58101;SDS011;52034;51.926;6.320;2023-05-23T01:10:00;11.38;;;8.40;;
58101;SDS011;52034;51.926;6.320;2023-05-23T01:11:03;11.65;;;7.93;;
58101;SDS011;52034;51.926;6.320;2023-05-23T01:14:55;13.73;;;8.70;;
58101;SDS011;52034;51.926;6.320;2023-05-23T01:17:20;16.50;;;9.20;;
58101;SDS011;52034;51.926;6.320;2023-05-23T01:18:36;13.43;;;8.70;;
58101;SDS011;52034;51.926;6.320;2023-05-23T01:19:48;18.60;;;9.05;;
58101;SDS011;52034;51.926;6.320;2023-05-23T01:21:00;16.52;;;8.88;;
58101;SDS011;52034;51.926;6.320;2023-05-23T01:22:05;16.42;;;9.70;;
58101;SDS011;52034;51.926;6.320;2023-05-23T01:23:24;19.63;;;9.80;;
58101;SDS011;52034;51.926;6.320;2023-05-23T01:24:35;15.15;;;9.48;;
58101;SDS011;52034;51.926;6.320;2023-05-23T01:27:23;15.10;;;10.18;;
58101;SDS011;52034;51.926;6.320;2023-05-23T01:28:45;23.60;;;10.18;;
58101;SDS011;52034;51.926;6.320;2023-05-23T01:29:47;16.27;;;9.05;;
58101;SDS011;52034;51.926;6.320;2023-05-23T01:30:54;15.93;;;9.75;;
58101;SDS011;52034;51.926;6.320;2023-05-23T01:31:57;16.20;;;9.88;;
58101;SDS011;52034;51.926;6.320;2023-05-23T01:32:59;16.88;;;9.77;;
58101;SDS011;52034;51.926;6.320;2023-05-23T01:34:01;17.15;;;9.35;;
58101;SDS011;52034;51.926;6.320;2023-05-23T01:35:02;13.48;;;9.30;;
58101;SDS011;52034;51.926;6.320;2023-05-23T01:36:04;20.05;;;10.52;;
58101;SDS011;52034;51.926;6.320;2023-05-23T01:37:08;18.60;;;9.57;;
58101;SDS011;52034;51.926;6.320;2023-05-23T01:38:10;16.52;;;10.02;;
58101;SDS011;52034;51.926;6.320;2023-05-23T01:39:12;15.00;;;9.60;;
58101;SDS011;52034;51.926;6.320;2023-05-23T01:40:13;15.80;;;10.35;;
58101;SDS011;52034;51.926;6.320;2023-05-23T01:41:13;16.63;;;10.23;;
58101;SDS011;52034;51.926;6.320;2023-05-23T01:42:14;18.87;;;10.50;;
58101;SDS011;52034;51.926;6.320;2023-05-23T01:43:15;17.27;;;10.40;;
58101;SDS011;52034;51.926;6.320;2023-05-23T01:44:15;18.73;;;10.37;;
58101;SDS011;52034;51.926;6.320;2023-05-23T01:45:16;14.97;;;9.40;;
58101;SDS011;52034;51.926;6.320;2023-05-23T01:46:17;14.95;;;9.07;;
58101;SDS011;52034;51.926;6.320;2023-05-23T01:48:19;18.67;;;9.30;;
58101;SDS011;52034;51.926;6.320;2023-05-23T01:49:21;19.38;;;9.63;;
58101;SDS011;52034;51.926;6.320;2023-05-23T01:51:23;17.55;;;8.50;;
58101;SDS011;52034;51.926;6.320;2023-05-23T01:52:24;15.17;;;8.67;;
58101;SDS011;52034;51.926;6.320;2023-05-23T01:53:25;13.45;;;7.65;;
58101;SDS011;52034;51.926;6.320;2023-05-23T01:54:26;12.30;;;8.38;;
58101;SDS011;52034;51.926;6.320;2023-05-23T01:55:28;14.93;;;8.40;;
58101;SDS011;52034;51.926;6.320;2023-05-23T01:56:30;12.50;;;7.80;;
58101;SDS011;52034;51.926;6.320;2023-05-23T01:57:31;13.60;;;8.25;;
58101;SDS011;52034;51.926;6.320;2023-05-23T01:58:32;13.98;;;8.30;;
58101;SDS011;52034;51.926;6.320;2023-05-23T01:59:33;11.27;;;7.93;;
58101;SDS011;52034;51.926;6.320;2023-05-23T02:00:33;17.40;;;8.03;;
58101;SDS011;52034;51.926;6.320;2023-05-23T02:01:34;13.73;;;8.60;;
58101;SDS011;52034;51.926;6.320;2023-05-23T02:02:34;16.10;;;9.03;;
58101;SDS011;52034;51.926;6.320;2023-05-23T02:03:35;12.20;;;9.43;;
58101;SDS011;52034;51.926;6.320;2023-05-23T02:04:36;14.40;;;8.63;;
58101;SDS011;52034;51.926;6.320;2023-05-23T02:05:36;12.00;;;8.27;;
58101;SDS011;52034;51.926;6.320;2023-05-23T02:06:36;14.30;;;8.60;;
58101;SDS011;52034;51.926;6.320;2023-05-23T02:07:37;13.23;;;8.17;;
58101;SDS011;52034;51.926;6.320;2023-05-23T02:08:37;14.10;;;8.30;;
58101;SDS011;52034;51.926;6.320;2023-05-23T02:09:38;15.77;;;9.20;;
58101;SDS011;52034;51.926;6.320;2023-05-23T02:10:39;14.60;;;9.00;;
58101;SDS011;52034;51.926;6.320;2023-05-23T02:11:39;12.13;;;9.53;;
58101;SDS011;52034;51.926;6.320;2023-05-23T02:12:39;11.30;;;8.43;;
58101;SDS011;52034;51.926;6.320;2023-05-23T02:13:40;13.87;;;9.60;;
58101;SDS011;52034;51.926;6.320;2023-05-23T02:14:40;16.13;;;9.23;;
58101;SDS011;52034;51.926;6.320;2023-05-23T02:15:41;14.67;;;8.87;;
58101;SDS011;52034;51.926;6.320;2023-05-23T02:16:41;13.17;;;9.20;;
58101;SDS011;52034;51.926;6.320;2023-05-23T02:17:42;12.83;;;9.30;;
58101;SDS011;52034;51.926;6.320;2023-05-23T02:18:42;15.17;;;8.87;;
58101;SDS011;52034;51.926;6.320;2023-05-23T02:19:46;13.95;;;8.63;;
58101;SDS011;52034;51.926;6.320;2023-05-23T02:20:47;13.18;;;8.63;;
58101;SDS011;52034;51.926;6.320;2023-05-23T02:21:47;16.47;;;10.07;;
58101;SDS011;52034;51.926;6.320;2023-05-23T02:22:47;16.00;;;8.87;;
58101;SDS011;52034;51.926;6.320;2023-05-23T02:23:48;18.10;;;9.17;;
58101;SDS011;52034;51.926;6.320;2023-05-23T02:24:51;13.18;;;8.40;;
58101;SDS011;52034;51.926;6.320;2023-05-23T02:25:51;16.27;;;8.82;;
58101;SDS011;52034;51.926;6.320;2023-05-23T02:26:52;14.13;;;8.70;;
58101;SDS011;52034;51.926;6.320;2023-05-23T02:27:52;14.53;;;8.30;;
58101;SDS011;52034;51.926;6.320;2023-05-23T02:28:52;14.07;;;9.40;;
58101;SDS011;52034;51.926;6.320;2023-05-23T02:29:53;15.30;;;8.37;;
58101;SDS011;52034;51.926;6.320;2023-05-23T02:30:53;12.20;;;8.77;;
58101;SDS011;52034;51.926;6.320;2023-05-23T02:31:53;16.97;;;8.43;;
58101;SDS011;52034;51.926;6.320;2023-05-23T02:32:54;15.83;;;9.37;;
58101;SDS011;52034;51.926;6.320;2023-05-23T02:33:54;12.57;;;8.40;;
58101;SDS011;52034;51.926;6.320;2023-05-23T02:34:55;12.83;;;9.17;;
58101;SDS011;52034;51.926;6.320;2023-05-23T02:35:56;16.33;;;9.47;;
58101;SDS011;52034;51.926;6.320;2023-05-23T02:36:56;16.60;;;9.03;;
58101;SDS011;52034;51.926;6.320;2023-05-23T02:37:56;16.03;;;9.07;;
58101;SDS011;52034;51.926;6.320;2023-05-23T02:38:57;15.50;;;9.27;;
58101;SDS011;52034;51.926;6.320;2023-05-23T02:39:57;15.90;;;10.03;;
58101;SDS011;52034;51.926;6.320;2023-05-23T02:40:58;13.25;;;9.15;;
58101;SDS011;52034;51.926;6.320;2023-05-23T02:42:00;17.70;;;10.70;;
58101;SDS011;52034;51.926;6.320;2023-05-23T02:43:01;19.80;;;10.00;;
58101;SDS011;52034;51.926;6.320;2023-05-23T02:44:01;18.33;;;10.53;;
58101;SDS011;52034;51.926;6.320;2023-05-23T02:45:02;16.63;;;9.83;;
58101;SDS011;52034;51.926;6.320;2023-05-23T02:46:03;19.75;;;10.18;;
58101;SDS011;52034;51.926;6.320;2023-05-23T02:47:03;17.27;;;9.87;;
58101;SDS011;52034;51.926;6.320;2023-05-23T02:48:04;20.02;;;10.07;;
58101;SDS011;52034;51.926;6.320;2023-05-23T02:49:04;17.03;;;9.13;;
58101;SDS011;52034;51.926;6.320;2023-05-23T02:50:06;14.20;;;9.57;;
58101;SDS011;52034;51.926;6.320;2023-05-23T02:51:07;15.88;;;9.88;;
58101;SDS011;52034;51.926;6.320;2023-05-23T02:52:07;13.80;;;9.90;;
58101;SDS011;52034;51.926;6.320;2023-05-23T02:53:08;19.70;;;10.13;;
58101;SDS011;52034;51.926;6.320;2023-05-23T02:54:08;17.13;;;10.53;;
58101;SDS011;52034;51.926;6.320;2023-05-23T02:55:10;17.30;;;10.15;;
58101;SDS011;52034;51.926;6.320;2023-05-23T02:56:15;19.55;;;10.77;;
58101;SDS011;52034;51.926;6.320;2023-05-23T02:57:16;18.23;;;10.50;;
58101;SDS011;52034;51.926;6.320;2023-05-23T02:58:17;18.05;;;10.73;;
58101;SDS011;52034;51.926;6.320;2023-05-23T02:59:18;13.25;;;9.82;;
58101;SDS011;52034;51.926;6.320;2023-05-23T03:00:18;19.30;;;11.23;;
58101;SDS011;52034;51.926;6.320;2023-05-23T03:01:23;15.60;;;10.77;;
58101;SDS011;52034;51.926;6.320;2023-05-23T03:02:24;17.60;;;11.10;;
58101;SDS011;52034;51.926;6.320;2023-05-23T03:03:24;18.55;;;11.43;;
58101;SDS011;52034;51.926;6.320;2023-05-23T03:04:27;19.92;;;11.75;;
58101;SDS011;52034;51.926;6.320;2023-05-23T03:05:28;19.10;;;11.02;;
58101;SDS011;52034;51.926;6.320;2023-05-23T03:06:28;18.53;;;11.27;;
58101;SDS011;52034;51.926;6.320;2023-05-23T03:07:31;15.50;;;11.63;;
58101;SDS011;52034;51.926;6.320;2023-05-23T03:08:32;18.38;;;11.75;;
58101;SDS011;52034;51.926;6.320;2023-05-23T03:09:33;15.37;;;11.07;;
58101;SDS011;52034;51.926;6.320;2023-05-23T03:10:34;16.75;;;10.77;;
58101;SDS011;52034;51.926;6.320;2023-05-23T03:11:35;17.63;;;11.45;;
58101;SDS011;52034;51.926;6.320;2023-05-23T03:12:36;17.25;;;11.07;;
58101;SDS011;52034;51.926;6.320;2023-05-23T03:13:36;17.13;;;11.40;;
58101;SDS011;52034;51.926;6.320;2023-05-23T03:14:37;18.57;;;11.20;;
58101;SDS011;52034;51.926;6.320;2023-05-23T03:15:37;23.60;;;12.50;;
58101;SDS011;52034;51.926;6.320;2023-05-23T03:16:37;21.33;;;11.80;;
58101;SDS011;52034;51.926;6.320;2023-05-23T03:17:38;20.00;;;11.30;;
58101;SDS011;52034;51.926;6.320;2023-05-23T03:18:38;18.33;;;10.87;;
58101;SDS011;52034;51.926;6.320;2023-05-23T03:19:41;19.30;;;11.38;;
58101;SDS011;52034;51.926;6.320;2023-05-23T03:20:41;15.63;;;10.30;;
58101;SDS011;52034;51.926;6.320;2023-05-23T03:21:41;18.80;;;11.33;;
58101;SDS011;52034;51.926;6.320;2023-05-23T03:22:43;21.00;;;10.70;;
58101;SDS011;52034;51.926;6.320;2023-05-23T03:23:44;14.85;;;10.93;;
58101;SDS011;52034;51.926;6.320;2023-05-23T03:24:44;18.07;;;11.13;;
58101;SDS011;52034;51.926;6.320;2023-05-23T03:25:45;21.03;;;11.80;;
58101;SDS011;52034;51.926;6.320;2023-05-23T03:26:45;20.20;;;12.53;;
58101;SDS011;52034;51.926;6.320;2023-05-23T03:27:45;19.83;;;11.57;;
58101;SDS011;52034;51.926;6.320;2023-05-23T03:28:46;22.63;;;11.87;;
58101;SDS011;52034;51.926;6.320;2023-05-23T03:29:47;20.38;;;11.82;;
58101;SDS011;52034;51.926;6.320;2023-05-23T03:30:48;15.40;;;11.40;;
58101;SDS011;52034;51.926;6.320;2023-05-23T03:31:48;17.90;;;11.73;;
58101;SDS011;52034;51.926;6.320;2023-05-23T03:32:48;16.63;;;12.10;;
58101;SDS011;52034;51.926;6.320;2023-05-23T03:33:49;18.33;;;11.63;;
58101;SDS011;52034;51.926;6.320;2023-05-23T03:34:50;21.50;;;12.45;;
58101;SDS011;52034;51.926;6.320;2023-05-23T03:35:50;18.80;;;12.63;;
58101;SDS011;52034;51.926;6.320;2023-05-23T03:36:52;19.67;;;12.77;;
58101;SDS011;52034;51.926;6.320;2023-05-23T03:37:52;27.40;;;12.87;;
58101;SDS011;52034;51.926;6.320;2023-05-23T03:38:52;21.20;;;12.60;;
58101;SDS011;52034;51.926;6.320;2023-05-23T03:39:53;20.57;;;12.53;;
58101;SDS011;52034;51.926;6.320;2023-05-23T03:40:53;20.77;;;13.83;;
58101;SDS011;52034;51.926;6.320;2023-05-23T03:41:53;19.97;;;13.47;;
58101;SDS011;52034;51.926;6.320;2023-05-23T03:43:01;18.80;;;12.60;;
58101;SDS011;52034;51.926;6.320;2023-05-23T03:44:03;24.23;;;13.20;;
58101;SDS011;52034;51.926;6.320;2023-05-23T03:45:04;21.53;;;11.80;;
58101;SDS011;52034;51.926;6.320;2023-05-23T03:46:06;22.55;;;12.02;;
58101;SDS011;52034;51.926;6.320;2023-05-23T03:47:06;18.53;;;12.60;;
58101;SDS011;52034;51.926;6.320;2023-05-23T03:48:09;17.95;;;12.80;;
58101;SDS011;52034;51.926;6.320;2023-05-23T03:49:10;21.07;;;13.23;;
58101;SDS011;52034;51.926;6.320;2023-05-23T03:50:10;20.13;;;12.50;;
58101;SDS011;52034;51.926;6.320;2023-05-23T03:51:14;19.50;;;12.10;;
58101;SDS011;52034;51.926;6.320;2023-05-23T03:52:15;19.90;;;12.27;;
58101;SDS011;52034;51.926;6.320;2023-05-23T03:53:15;16.23;;;11.57;;
58101;SDS011;52034;51.926;6.320;2023-05-23T03:54:15;22.10;;;12.90;;
58101;SDS011;52034;51.926;6.320;2023-05-23T03:55:17;18.27;;;11.88;;
58101;SDS011;52034;51.926;6.320;2023-05-23T03:56:21;17.95;;;11.75;;
58101;SDS011;52034;51.926;6.320;2023-05-23T03:57:22;17.93;;;11.80;;
58101;SDS011;52034;51.926;6.320;2023-05-23T03:58:23;20.13;;;11.40;;
58101;SDS011;52034;51.926;6.320;2023-05-23T03:59:27;17.42;;;11.50;;
58101;SDS011;52034;51.926;6.320;2023-05-23T04:00:29;20.75;;;12.40;;
58101;SDS011;52034;51.926;6.320;2023-05-23T04:01:32;18.42;;;11.75;;
58101;SDS011;52034;51.926;6.320;2023-05-23T04:02:33;17.65;;;11.57;;
58101;SDS011;52034;51.926;6.320;2023-05-23T04:03:33;17.27;;;11.33;;
58101;SDS011;52034;51.926;6.320;2023-05-23T04:05:35;17.92;;;12.38;;
58101;SDS011;52034;51.926;6.320;2023-05-23T04:06:36;20.73;;;12.82;;
58101;SDS011;52034;51.926;6.320;2023-05-23T04:07:37;21.03;;;12.73;;
58101;SDS011;52034;51.926;6.320;2023-05-23T04:08:38;16.23;;;12.10;;
58101;SDS011;52034;51.926;6.320;2023-05-23T04:09:40;18.55;;;11.45;;
58101;SDS011;52034;51.926;6.320;2023-05-23T04:10:43;16.80;;;11.63;;
58101;SDS011;52034;51.926;6.320;2023-05-23T04:11:43;24.00;;;13.73;;
58101;SDS011;52034;51.926;6.320;2023-05-23T04:12:43;20.00;;;11.77;;
58101;SDS011;52034;51.926;6.320;2023-05-23T04:13:48;16.90;;;12.15;;
58101;SDS011;52034;51.926;6.320;2023-05-23T04:14:49;19.17;;;11.90;;
58101;SDS011;52034;51.926;6.320;2023-05-23T04:15:50;20.83;;;11.67;;
58101;SDS011;52034;51.926;6.320;2023-05-23T04:16:51;19.13;;;11.75;;
58101;SDS011;52034;51.926;6.320;2023-05-23T04:17:52;15.95;;;11.10;;
58101;SDS011;52034;51.926;6.320;2023-05-23T04:18:53;17.50;;;11.70;;
58101;SDS011;52034;51.926;6.320;2023-05-23T04:19:54;15.57;;;11.15;;
58101;SDS011;52034;51.926;6.320;2023-05-23T04:20:55;18.93;;;11.20;;
58101;SDS011;52034;51.926;6.320;2023-05-23T04:21:55;19.30;;;11.27;;
58101;SDS011;52034;51.926;6.320;2023-05-23T04:22:56;19.42;;;11.43;;
58101;SDS011;52034;51.926;6.320;2023-05-23T04:23:58;16.02;;;11.27;;
58101;SDS011;52034;51.926;6.320;2023-05-23T04:24:59;22.40;;;13.00;;
58101;SDS011;52034;51.926;6.320;2023-05-23T04:26:02;19.98;;;11.02;;
58101;SDS011;52034;51.926;6.320;2023-05-23T04:27:08;18.60;;;12.30;;
58101;SDS011;52034;51.926;6.320;2023-05-23T04:28:10;17.65;;;11.27;;
58101;SDS011;52034;51.926;6.320;2023-05-23T04:29:11;19.75;;;11.27;;
58101;SDS011;52034;51.926;6.320;2023-05-23T04:30:11;17.07;;;11.40;;
58101;SDS011;52034;51.926;6.320;2023-05-23T04:31:15;22.50;;;11.77;;
58101;SDS011;52034;51.926;6.320;2023-05-23T04:32:15;17.20;;;11.30;;
58101;SDS011;52034;51.926;6.320;2023-05-23T04:33:18;18.17;;;11.48;;
58101;SDS011;52034;51.926;6.320;2023-05-23T04:34:19;20.60;;;11.73;;
58101;SDS011;52034;51.926;6.320;2023-05-23T04:35:21;20.58;;;11.68;;
58101;SDS011;52034;51.926;6.320;2023-05-23T04:36:22;27.60;;;11.20;;
58101;SDS011;52034;51.926;6.320;2023-05-23T04:37:25;19.55;;;12.18;;
58101;SDS011;52034;51.926;6.320;2023-05-23T04:38:26;16.97;;;11.80;;
58101;SDS011;52034;51.926;6.320;2023-05-23T04:39:27;18.10;;;11.10;;
58101;SDS011;52034;51.926;6.320;2023-05-23T04:40:52;20.80;;;11.40;;
58101;SDS011;52034;51.926;6.320;2023-05-23T04:42:11;22.13;;;12.30;;
58101;SDS011;52034;51.926;6.320;2023-05-23T04:43:33;19.33;;;11.80;;
58101;SDS011;52034;51.926;6.320;2023-05-23T04:44:46;22.05;;;11.65;;
58101;SDS011;52034;51.926;6.320;2023-05-23T04:46:03;21.48;;;12.50;;
58101;SDS011;52034;51.926;6.320;2023-05-23T04:47:09;23.70;;;11.65;;
58101;SDS011;52034;51.926;6.320;2023-05-23T04:48:24;21.05;;;11.43;;
58101;SDS011;52034;51.926;6.320;2023-05-23T04:50:28;19.57;;;11.73;;
58101;SDS011;52034;51.926;6.320;2023-05-23T04:51:32;23.17;;;11.85;;
58101;SDS011;52034;51.926;6.320;2023-05-23T04:52:42;21.88;;;11.77;;
58101;SDS011;52034;51.926;6.320;2023-05-23T04:53:43;23.00;;;11.82;;
58101;SDS011;52034;51.926;6.320;2023-05-23T04:54:45;20.15;;;11.02;;
58101;SDS011;52034;51.926;6.320;2023-05-23T04:55:47;18.77;;;11.35;;
58101;SDS011;52034;51.926;6.320;2023-05-23T04:56:50;19.63;;;12.20;;
58101;SDS011;52034;51.926;6.320;2023-05-23T04:57:53;21.05;;;12.13;;
58101;SDS011;52034;51.926;6.320;2023-05-23T04:58:53;18.10;;;10.43;;
58101;SDS011;52034;51.926;6.320;2023-05-23T04:59:55;22.80;;;11.32;;
58101;SDS011;52034;51.926;6.320;2023-05-23T05:00:56;19.60;;;11.07;;
58101;SDS011;52034;51.926;6.320;2023-05-23T05:01:57;22.60;;;11.50;;
58101;SDS011;52034;51.926;6.320;2023-05-23T05:02:57;16.73;;;10.77;;
58101;SDS011;52034;51.926;6.320;2023-05-23T05:04:01;17.45;;;10.18;;
58101;SDS011;52034;51.926;6.320;2023-05-23T05:05:02;17.20;;;10.73;;
58101;SDS011;52034;51.926;6.320;2023-05-23T05:06:06;15.77;;;10.52;;
58101;SDS011;52034;51.926;6.320;2023-05-23T05:07:06;17.33;;;10.37;;
58101;SDS011;52034;51.926;6.320;2023-05-23T05:08:07;18.50;;;11.47;;
58101;SDS011;52034;51.926;6.320;2023-05-23T05:09:09;17.77;;;11.20;;
58101;SDS011;52034;51.926;6.320;2023-05-23T05:10:09;21.70;;;10.87;;
58101;SDS011;52034;51.926;6.320;2023-05-23T05:11:15;20.33;;;10.27;;
58101;SDS011;52034;51.926;6.320;2023-05-23T05:12:16;19.57;;;11.13;;
58101;SDS011;52034;51.926;6.320;2023-05-23T05:13:16;19.57;;;11.27;;
58101;SDS011;52034;51.926;6.320;2023-05-23T05:14:21;20.52;;;11.07;;
58101;SDS011;52034;51.926;6.320;2023-05-23T05:15:21;19.60;;;10.40;;
58101;SDS011;52034;51.926;6.320;2023-05-23T05:16:26;22.35;;;11.27;;
58101;SDS011;52034;51.926;6.320;2023-05-23T05:17:27;21.30;;;11.13;;
58101;SDS011;52034;51.926;6.320;2023-05-23T05:18:41;25.08;;;10.55;;
58101;SDS011;52034;51.926;6.320;2023-05-23T05:19:41;16.33;;;10.33;;
58101;SDS011;52034;51.926;6.320;2023-05-23T05:20:42;18.23;;;10.70;;
58101;SDS011;52034;51.926;6.320;2023-05-23T05:21:42;21.93;;;9.87;;
58101;SDS011;52034;51.926;6.320;2023-05-23T05:22:42;18.60;;;9.27;;
58101;SDS011;52034;51.926;6.320;2023-05-23T05:23:45;18.65;;;10.30;;
58101;SDS011;52034;51.926;6.320;2023-05-23T05:24:48;18.85;;;10.57;;
58101;SDS011;52034;51.926;6.320;2023-05-23T05:25:49;18.63;;;9.40;;
58101;SDS011;52034;51.926;6.320;2023-05-23T05:26:49;20.60;;;9.53;;
58101;SDS011;52034;51.926;6.320;2023-05-23T05:27:50;20.37;;;10.30;;
58101;SDS011;52034;51.926;6.320;2023-05-23T05:28:53;15.18;;;9.77;;
58101;SDS011;52034;51.926;6.320;2023-05-23T05:29:54;17.35;;;9.73;;
58101;SDS011;52034;51.926;6.320;2023-05-23T05:30:58;22.67;;;10.38;;
58101;SDS011;52034;51.926;6.320;2023-05-23T05:31:59;19.80;;;10.73;;
58101;SDS011;52034;51.926;6.320;2023-05-23T05:33:01;22.58;;;10.00;;
58101;SDS011;52034;51.926;6.320;2023-05-23T05:34:03;25.73;;;11.05;;
58101;SDS011;52034;51.926;6.320;2023-05-23T05:35:03;18.40;;;10.20;;
58101;SDS011;52034;51.926;6.320;2023-05-23T05:36:05;19.85;;;10.32;;
58101;SDS011;52034;51.926;6.320;2023-05-23T05:37:06;24.88;;;10.52;;
58101;SDS011;52034;51.926;6.320;2023-05-23T05:38:06;23.17;;;10.53;;
58101;SDS011;52034;51.926;6.320;2023-05-23T05:39:07;22.53;;;10.67;;
58101;SDS011;52034;51.926;6.320;2023-05-23T05:40:08;22.35;;;10.70;;
58101;SDS011;52034;51.926;6.320;2023-05-23T05:41:11;26.98;;;11.23;;
58101;SDS011;52034;51.926;6.320;2023-05-23T05:42:23;20.63;;;10.23;;
58101;SDS011;52034;51.926;6.320;2023-05-23T05:43:25;20.63;;;10.07;;
58101;SDS011;52034;51.926;6.320;2023-05-23T05:44:25;18.77;;;10.88;;
58101;SDS011;52034;51.926;6.320;2023-05-23T05:45:26;22.73;;;11.40;;
58101;SDS011;52034;51.926;6.320;2023-05-23T05:46:27;21.35;;;11.02;;
58101;SDS011;52034;51.926;6.320;2023-05-23T05:47:27;22.17;;;10.60;;
58101;SDS011;52034;51.926;6.320;2023-05-23T05:48:28;26.02;;;11.02;;
58101;SDS011;52034;51.926;6.320;2023-05-23T05:49:31;24.17;;;11.60;;
58101;SDS011;52034;51.926;6.320;2023-05-23T05:50:31;23.80;;;11.23;;
58101;SDS011;52034;51.926;6.320;2023-05-23T05:51:32;21.03;;;11.50;;
58101;SDS011;52034;51.926;6.320;2023-05-23T05:52:32;20.13;;;10.90;;
58101;SDS011;52034;51.926;6.320;2023-05-23T05:53:37;24.15;;;11.07;;
58101;SDS011;52034;51.926;6.320;2023-05-23T05:54:38;26.58;;;12.30;;
58101;SDS011;52034;51.926;6.320;2023-05-23T05:55:39;24.40;;;10.93;;
58101;SDS011;52034;51.926;6.320;2023-05-23T05:56:39;21.90;;;11.03;;
58101;SDS011;52034;51.926;6.320;2023-05-23T05:58:42;21.05;;;10.60;;
58101;SDS011;52034;51.926;6.320;2023-05-23T05:59:46;19.27;;;10.98;;
58101;SDS011;52034;51.926;6.320;2023-05-23T06:00:46;23.03;;;10.80;;
58101;SDS011;52034;51.926;6.320;2023-05-23T06:01:48;23.67;;;10.50;;
58101;SDS011;52034;51.926;6.320;2023-05-23T06:02:50;24.75;;;12.13;;
58101;SDS011;52034;51.926;6.320;2023-05-23T06:04:08;19.42;;;10.70;;
58101;SDS011;52034;51.926;6.320;2023-05-23T06:05:11;20.90;;;10.23;;
58101;SDS011;52034;51.926;6.320;2023-05-23T06:06:13;20.25;;;10.98;;
58101;SDS011;52034;51.926;6.320;2023-05-23T06:07:13;20.47;;;10.10;;
58101;SDS011;52034;51.926;6.320;2023-05-23T06:08:14;20.43;;;10.53;;
58101;SDS011;52034;51.926;6.320;2023-05-23T06:09:14;18.57;;;10.57;;
58101;SDS011;52034;51.926;6.320;2023-05-23T06:10:16;26.58;;;10.48;;
58101;SDS011;52034;51.926;6.320;2023-05-23T06:11:17;22.87;;;10.50;;
58101;SDS011;52034;51.926;6.320;2023-05-23T06:12:17;23.97;;;11.03;;
58101;SDS011;52034;51.926;6.320;2023-05-23T06:13:17;22.10;;;9.73;;
58101;SDS011;52034;51.926;6.320;2023-05-23T06:14:22;20.38;;;9.45;;
58101;SDS011;52034;51.926;6.320;2023-05-23T06:15:22;22.30;;;11.03;;
58101;SDS011;52034;51.926;6.320;2023-05-23T06:16:23;26.52;;;9.73;;
58101;SDS011;52034;51.926;6.320;2023-05-23T06:17:24;25.60;;;10.93;;
58101;SDS011;52034;51.926;6.320;2023-05-23T06:18:24;18.80;;;10.05;;
58101;SDS011;52034;51.926;6.320;2023-05-23T06:19:25;17.73;;;9.73;;